sensor_id;sensor_type;location;lat;lon;timestamp;P1;durP1;ratioP1;P2;durP2;ratioP2
28756;SDS011;44294;48.282;14.282;2023-05-10T00:01:49;5.50;;;4.90;;
28756;SDS011;44294;48.282;14.282;2023-05-10T00:04:36;6.77;;;5.20;;
28756;SDS011;44294;48.282;14.282;2023-05-10T00:07:24;6.93;;;5.57;;
28756;SDS011;44294;48.282;14.282;2023-05-10T00:10:11;6.07;;;5.37;;
28756;SDS011;44294;48.282;14.282;2023-05-10T00:12:59;5.80;;;5.03;;
28756;SDS011;44294;48.282;14.282;2023-05-10T00:15:46;6.93;;;5.40;;
28756;SDS011;44294;48.282;14.282;2023-05-10T00:18:33;7.23;;;5.57;;
28756;SDS011;44294;48.282;14.282;2023-05-10T00:21:21;5.80;;;5.00;;
28756;SDS011;44294;48.282;14.282;2023-05-10T00:24:08;8.10;;;5.47;;
28756;SDS011;44294;48.282;14.282;2023-05-10T00:26:55;6.80;;;5.03;;
28756;SDS011;44294;48.282;14.282;2023-05-10T00:29:42;6.63;;;5.33;;
28756;SDS011;44294;48.282;14.282;2023-05-10T00:32:30;6.97;;;5.20;;
28756;SDS011;44294;48.282;14.282;2023-05-10T00:35:17;6.43;;;4.90;;
28756;SDS011;44294;48.282;14.282;2023-05-10T00:38:04;7.83;;;4.87;;
28756;SDS011;44294;48.282;14.282;2023-05-10T00:40:52;7.60;;;5.07;;
28756;SDS011;44294;48.282;14.282;2023-05-10T00:43:39;6.77;;;4.90;;
28756;SDS011;44294;48.282;14.282;2023-05-10T00:46:26;7.17;;;4.67;;
28756;SDS011;44294;48.282;14.282;2023-05-10T00:49:14;7.03;;;5.10;;
28756;SDS011;44294;48.282;14.282;2023-05-10T00:52:02;7.10;;;5.00;;
28756;SDS011;44294;48.282;14.282;2023-05-10T00:54:50;5.40;;;4.70;;
28756;SDS011;44294;48.282;14.282;2023-05-10T00:57:37;5.73;;;4.90;;
28756;SDS011;44294;48.282;14.282;2023-05-10T01:00:24;4.97;;;4.47;;
28756;SDS011;44294;48.282;14.282;2023-05-10T01:03:12;5.83;;;4.90;;
28756;SDS011;44294;48.282;14.282;2023-05-10T01:06:00;5.17;;;4.57;;
28756;SDS011;44294;48.282;14.282;2023-05-10T01:08:47;6.53;;;4.70;;
28756;SDS011;44294;48.282;14.282;2023-05-10T01:11:35;5.90;;;4.70;;
28756;SDS011;44294;48.282;14.282;2023-05-10T01:14:24;6.23;;;4.73;;
28756;SDS011;44294;48.282;14.282;2023-05-10T01:17:12;7.13;;;4.67;;
28756;SDS011;44294;48.282;14.282;2023-05-10T01:19:59;5.60;;;4.57;;
28756;SDS011;44294;48.282;14.282;2023-05-10T01:34:54;6.60;;;4.70;;
28756;SDS011;44294;48.282;14.282;2023-05-10T01:37:50;6.90;;;4.80;;
28756;SDS011;44294;48.282;14.282;2023-05-10T01:40:33;4.97;;;4.27;;
28756;SDS011;44294;48.282;14.282;2023-05-10T01:43:26;7.50;;;4.80;;
28756;SDS011;44294;48.282;14.282;2023-05-10T01:46:16;5.90;;;4.50;;
28756;SDS011;44294;48.282;14.282;2023-05-10T01:49:07;5.77;;;4.60;;
28756;SDS011;44294;48.282;14.282;2023-05-10T01:51:54;6.20;;;4.50;;
28756;SDS011;44294;48.282;14.282;2023-05-10T01:54:43;5.87;;;4.60;;
28756;SDS011;44294;48.282;14.282;2023-05-10T01:57:34;6.90;;;4.30;;
28756;SDS011;44294;48.282;14.282;2023-05-10T02:00:22;6.97;;;4.90;;
28756;SDS011;44294;48.282;14.282;2023-05-10T02:03:10;4.77;;;4.27;;
28756;SDS011;44294;48.282;14.282;2023-05-10T02:05:57;6.60;;;4.93;;
28756;SDS011;44294;48.282;14.282;2023-05-10T02:08:46;6.40;;;4.57;;
28756;SDS011;44294;48.282;14.282;2023-05-10T02:11:33;5.90;;;4.70;;
28756;SDS011;44294;48.282;14.282;2023-05-10T02:14:21;7.07;;;5.10;;
28756;SDS011;44294;48.282;14.282;2023-05-10T02:17:10;5.67;;;4.67;;
28756;SDS011;44294;48.282;14.282;2023-05-10T02:20:01;6.43;;;4.80;;
28756;SDS011;44294;48.282;14.282;2023-05-10T02:22:48;7.50;;;4.93;;
28756;SDS011;44294;48.282;14.282;2023-05-10T02:25:36;6.20;;;4.93;;
28756;SDS011;44294;48.282;14.282;2023-05-10T02:28:25;6.03;;;4.50;;
28756;SDS011;44294;48.282;14.282;2023-05-10T02:31:13;5.63;;;4.50;;
28756;SDS011;44294;48.282;14.282;2023-05-10T02:34:01;8.63;;;5.30;;
28756;SDS011;44294;48.282;14.282;2023-05-10T02:36:49;7.33;;;5.30;;
28756;SDS011;44294;48.282;14.282;2023-05-10T02:39:37;6.53;;;5.50;;
28756;SDS011;44294;48.282;14.282;2023-05-10T02:42:27;8.93;;;5.23;;
28756;SDS011;44294;48.282;14.282;2023-05-10T02:45:28;7.20;;;5.60;;
28756;SDS011;44294;48.282;14.282;2023-05-10T02:48:03;9.00;;;5.60;;
28756;SDS011;44294;48.282;14.282;2023-05-10T02:50:51;7.30;;;5.67;;
28756;SDS011;44294;48.282;14.282;2023-05-10T02:53:40;6.87;;;5.20;;
28756;SDS011;44294;48.282;14.282;2023-05-10T02:56:34;6.03;;;4.80;;
28756;SDS011;44294;48.282;14.282;2023-05-10T02:59:17;7.17;;;5.30;;
28756;SDS011;44294;48.282;14.282;2023-05-10T03:02:04;7.13;;;4.80;;
28756;SDS011;44294;48.282;14.282;2023-05-10T03:04:52;6.57;;;4.93;;
28756;SDS011;44294;48.282;14.282;2023-05-10T03:07:39;6.80;;;4.83;;
28756;SDS011;44294;48.282;14.282;2023-05-10T03:10:27;5.77;;;4.47;;
28756;SDS011;44294;48.282;14.282;2023-05-10T03:13:26;7.00;;;5.20;;
28756;SDS011;44294;48.282;14.282;2023-05-10T03:16:15;7.43;;;4.70;;
28756;SDS011;44294;48.282;14.282;2023-05-10T03:19:06;5.53;;;4.63;;
28756;SDS011;44294;48.282;14.282;2023-05-10T03:21:55;6.47;;;4.93;;
28756;SDS011;44294;48.282;14.282;2023-05-10T03:24:44;5.50;;;4.80;;
28756;SDS011;44294;48.282;14.282;2023-05-10T03:27:32;7.40;;;5.13;;
28756;SDS011;44294;48.282;14.282;2023-05-10T03:30:19;6.37;;;4.97;;
28756;SDS011;44294;48.282;14.282;2023-05-10T03:33:06;6.70;;;4.80;;
28756;SDS011;44294;48.282;14.282;2023-05-10T03:35:54;7.40;;;5.07;;
28756;SDS011;44294;48.282;14.282;2023-05-10T03:38:41;6.03;;;4.93;;
28756;SDS011;44294;48.282;14.282;2023-05-10T03:41:29;5.47;;;4.63;;
28756;SDS011;44294;48.282;14.282;2023-05-10T03:44:16;5.87;;;4.90;;
28756;SDS011;44294;48.282;14.282;2023-05-10T03:47:03;8.43;;;5.20;;
28756;SDS011;44294;48.282;14.282;2023-05-10T03:49:51;7.90;;;5.40;;
28756;SDS011;44294;48.282;14.282;2023-05-10T03:52:38;6.00;;;5.10;;
28756;SDS011;44294;48.282;14.282;2023-05-10T03:55:28;6.00;;;5.10;;
28756;SDS011;44294;48.282;14.282;2023-05-10T03:58:16;7.67;;;5.30;;
28756;SDS011;44294;48.282;14.282;2023-05-10T04:01:03;5.77;;;4.90;;
28756;SDS011;44294;48.282;14.282;2023-05-10T04:03:50;5.27;;;4.73;;
28756;SDS011;44294;48.282;14.282;2023-05-10T04:06:37;7.53;;;5.30;;
28756;SDS011;44294;48.282;14.282;2023-05-10T04:09:25;7.50;;;5.40;;
28756;SDS011;44294;48.282;14.282;2023-05-10T04:12:12;6.93;;;5.33;;
28756;SDS011;44294;48.282;14.282;2023-05-10T04:14:59;7.83;;;5.23;;
28756;SDS011;44294;48.282;14.282;2023-05-10T04:17:47;7.83;;;5.30;;
28756;SDS011;44294;48.282;14.282;2023-05-10T04:20:34;6.30;;;5.13;;
28756;SDS011;44294;48.282;14.282;2023-05-10T04:23:22;6.13;;;5.20;;
28756;SDS011;44294;48.282;14.282;2023-05-10T04:26:09;7.57;;;5.30;;
28756;SDS011;44294;48.282;14.282;2023-05-10T04:28:56;7.40;;;5.30;;
28756;SDS011;44294;48.282;14.282;2023-05-10T04:31:44;9.60;;;5.87;;
28756;SDS011;44294;48.282;14.282;2023-05-10T04:34:31;7.90;;;5.17;;
28756;SDS011;44294;48.282;14.282;2023-05-10T04:37:20;8.83;;;6.60;;
28756;SDS011;44294;48.282;14.282;2023-05-10T04:40:09;6.50;;;5.23;;
28756;SDS011;44294;48.282;14.282;2023-05-10T04:42:56;8.43;;;6.00;;
28756;SDS011;44294;48.282;14.282;2023-05-10T04:45:44;6.97;;;5.33;;
28756;SDS011;44294;48.282;14.282;2023-05-10T04:48:31;7.70;;;5.50;;
28756;SDS011;44294;48.282;14.282;2023-05-10T04:51:18;8.27;;;5.83;;
28756;SDS011;44294;48.282;14.282;2023-05-10T04:54:06;9.43;;;5.53;;
28756;SDS011;44294;48.282;14.282;2023-05-10T04:56:54;11.20;;;6.53;;
28756;SDS011;44294;48.282;14.282;2023-05-10T04:59:41;18.83;;;8.97;;
28756;SDS011;44294;48.282;14.282;2023-05-10T05:02:29;13.33;;;7.77;;
28756;SDS011;44294;48.282;14.282;2023-05-10T05:05:17;14.20;;;8.43;;
28756;SDS011;44294;48.282;14.282;2023-05-10T05:08:04;14.17;;;8.10;;
28756;SDS011;44294;48.282;14.282;2023-05-10T05:10:52;17.43;;;8.73;;
28756;SDS011;44294;48.282;14.282;2023-05-10T05:13:39;15.87;;;8.13;;
28756;SDS011;44294;48.282;14.282;2023-05-10T05:16:26;11.97;;;7.30;;
28756;SDS011;44294;48.282;14.282;2023-05-10T05:19:13;12.13;;;7.30;;
28756;SDS011;44294;48.282;14.282;2023-05-10T05:22:01;13.07;;;6.93;;
28756;SDS011;44294;48.282;14.282;2023-05-10T05:24:48;17.07;;;7.23;;
28756;SDS011;44294;48.282;14.282;2023-05-10T05:27:36;12.23;;;7.53;;
28756;SDS011;44294;48.282;14.282;2023-05-10T05:30:23;18.90;;;7.63;;
28756;SDS011;44294;48.282;14.282;2023-05-10T05:33:11;15.03;;;8.27;;
28756;SDS011;44294;48.282;14.282;2023-05-10T05:36:01;15.97;;;7.43;;
28756;SDS011;44294;48.282;14.282;2023-05-10T05:38:47;10.30;;;7.40;;
28756;SDS011;44294;48.282;14.282;2023-05-10T05:41:34;12.50;;;7.77;;
28756;SDS011;44294;48.282;14.282;2023-05-10T05:44:22;12.80;;;7.13;;
28756;SDS011;44294;48.282;14.282;2023-05-10T05:47:09;9.83;;;7.27;;
28756;SDS011;44294;48.282;14.282;2023-05-10T05:49:56;24.70;;;15.27;;
28756;SDS011;44294;48.282;14.282;2023-05-10T05:52:44;13.20;;;7.80;;
28756;SDS011;44294;48.282;14.282;2023-05-10T05:55:31;10.80;;;7.30;;
28756;SDS011;44294;48.282;14.282;2023-05-10T05:58:18;11.67;;;7.17;;
28756;SDS011;44294;48.282;14.282;2023-05-10T06:01:06;12.00;;;7.37;;
28756;SDS011;44294;48.282;14.282;2023-05-10T06:03:53;9.43;;;7.53;;
28756;SDS011;44294;48.282;14.282;2023-05-10T06:06:41;11.57;;;7.80;;
28756;SDS011;44294;48.282;14.282;2023-05-10T06:09:28;9.93;;;7.67;;
28756;SDS011;44294;48.282;14.282;2023-05-10T06:12:15;13.80;;;7.47;;
28756;SDS011;44294;48.282;14.282;2023-05-10T06:15:03;9.97;;;7.33;;
28756;SDS011;44294;48.282;14.282;2023-05-10T06:17:51;13.57;;;7.67;;
28756;SDS011;44294;48.282;14.282;2023-05-10T06:20:38;13.13;;;7.90;;
28756;SDS011;44294;48.282;14.282;2023-05-10T06:23:25;10.97;;;7.40;;
28756;SDS011;44294;48.282;14.282;2023-05-10T06:26:13;14.50;;;7.93;;
28756;SDS011;44294;48.282;14.282;2023-05-10T06:29:00;14.10;;;8.40;;
28756;SDS011;44294;48.282;14.282;2023-05-10T06:31:47;16.37;;;8.80;;
28756;SDS011;44294;48.282;14.282;2023-05-10T06:34:35;13.47;;;8.53;;
28756;SDS011;44294;48.282;14.282;2023-05-10T06:37:22;14.47;;;7.83;;
28756;SDS011;44294;48.282;14.282;2023-05-10T06:40:09;11.50;;;7.20;;
28756;SDS011;44294;48.282;14.282;2023-05-10T06:42:57;13.53;;;7.73;;
28756;SDS011;44294;48.282;14.282;2023-05-10T06:45:44;9.50;;;7.33;;
28756;SDS011;44294;48.282;14.282;2023-05-10T06:48:31;9.27;;;7.50;;
28756;SDS011;44294;48.282;14.282;2023-05-10T06:51:19;13.07;;;8.10;;
28756;SDS011;44294;48.282;14.282;2023-05-10T06:54:07;10.93;;;7.63;;
28756;SDS011;44294;48.282;14.282;2023-05-10T06:56:54;12.83;;;7.80;;
28756;SDS011;44294;48.282;14.282;2023-05-10T06:59:42;14.70;;;8.27;;
28756;SDS011;44294;48.282;14.282;2023-05-10T07:02:29;12.13;;;7.90;;
28756;SDS011;44294;48.282;14.282;2023-05-10T07:05:17;14.17;;;7.80;;
28756;SDS011;44294;48.282;14.282;2023-05-10T07:08:04;15.40;;;7.80;;
28756;SDS011;44294;48.282;14.282;2023-05-10T07:10:51;14.63;;;8.30;;
28756;SDS011;44294;48.282;14.282;2023-05-10T07:13:38;11.20;;;7.77;;
28756;SDS011;44294;48.282;14.282;2023-05-10T07:16:27;11.83;;;8.10;;
28756;SDS011;44294;48.282;14.282;2023-05-10T07:19:15;16.60;;;8.23;;
28756;SDS011;44294;48.282;14.282;2023-05-10T07:22:02;12.40;;;8.53;;
28756;SDS011;44294;48.282;14.282;2023-05-10T07:24:49;14.37;;;8.77;;
28756;SDS011;44294;48.282;14.282;2023-05-10T07:27:37;12.90;;;8.20;;
28756;SDS011;44294;48.282;14.282;2023-05-10T07:30:24;13.23;;;7.80;;
28756;SDS011;44294;48.282;14.282;2023-05-10T07:33:12;15.93;;;8.13;;
28756;SDS011;44294;48.282;14.282;2023-05-10T07:35:59;13.30;;;8.13;;
28756;SDS011;44294;48.282;14.282;2023-05-10T07:38:47;18.67;;;8.83;;
28756;SDS011;44294;48.282;14.282;2023-05-10T07:41:35;13.80;;;8.43;;
28756;SDS011;44294;48.282;14.282;2023-05-10T07:44:23;13.00;;;8.37;;
28756;SDS011;44294;48.282;14.282;2023-05-10T07:47:11;17.67;;;9.27;;
28756;SDS011;44294;48.282;14.282;2023-05-10T07:49:58;20.33;;;10.30;;
28756;SDS011;44294;48.282;14.282;2023-05-10T07:52:46;22.67;;;11.27;;
28756;SDS011;44294;48.282;14.282;2023-05-10T07:55:33;25.33;;;12.70;;
28756;SDS011;44294;48.282;14.282;2023-05-10T07:58:20;29.80;;;12.27;;
28756;SDS011;44294;48.282;14.282;2023-05-10T08:01:08;22.93;;;11.07;;
28756;SDS011;44294;48.282;14.282;2023-05-10T08:03:55;19.73;;;10.27;;
28756;SDS011;44294;48.282;14.282;2023-05-10T08:06:42;25.93;;;15.23;;
28756;SDS011;44294;48.282;14.282;2023-05-10T08:09:29;23.37;;;13.07;;
28756;SDS011;44294;48.282;14.282;2023-05-10T08:12:17;20.93;;;12.37;;
28756;SDS011;44294;48.282;14.282;2023-05-10T08:15:04;18.40;;;10.60;;
28756;SDS011;44294;48.282;14.282;2023-05-10T08:17:52;18.27;;;9.47;;
28756;SDS011;44294;48.282;14.282;2023-05-10T08:20:40;20.20;;;9.90;;
28756;SDS011;44294;48.282;14.282;2023-05-10T08:23:28;19.87;;;10.57;;
28756;SDS011;44294;48.282;14.282;2023-05-10T08:26:15;18.47;;;9.97;;
28756;SDS011;44294;48.282;14.282;2023-05-10T08:29:02;15.63;;;10.03;;
28756;SDS011;44294;48.282;14.282;2023-05-10T08:31:49;18.10;;;10.60;;
28756;SDS011;44294;48.282;14.282;2023-05-10T08:34:37;17.33;;;10.47;;
28756;SDS011;44294;48.282;14.282;2023-05-10T08:37:24;17.27;;;10.00;;
28756;SDS011;44294;48.282;14.282;2023-05-10T08:40:11;18.83;;;9.77;;
28756;SDS011;44294;48.282;14.282;2023-05-10T08:43:02;16.00;;;10.10;;
28756;SDS011;44294;48.282;14.282;2023-05-10T08:45:48;17.87;;;11.67;;
28756;SDS011;44294;48.282;14.282;2023-05-10T08:48:36;16.50;;;10.03;;
28756;SDS011;44294;48.282;14.282;2023-05-10T08:51:24;19.57;;;11.80;;
28756;SDS011;44294;48.282;14.282;2023-05-10T08:54:13;21.53;;;12.80;;
28756;SDS011;44294;48.282;14.282;2023-05-10T08:57:00;27.47;;;17.43;;
28756;SDS011;44294;48.282;14.282;2023-05-10T08:59:48;19.53;;;13.20;;
28756;SDS011;44294;48.282;14.282;2023-05-10T09:02:36;21.63;;;11.87;;
28756;SDS011;44294;48.282;14.282;2023-05-10T09:05:24;16.60;;;11.10;;
28756;SDS011;44294;48.282;14.282;2023-05-10T09:08:11;14.37;;;10.47;;
28756;SDS011;44294;48.282;14.282;2023-05-10T09:10:59;12.73;;;9.40;;
28756;SDS011;44294;48.282;14.282;2023-05-10T09:13:48;11.50;;;9.13;;
28756;SDS011;44294;48.282;14.282;2023-05-10T09:16:35;15.90;;;10.30;;
28756;SDS011;44294;48.282;14.282;2023-05-10T09:19:22;12.63;;;9.37;;
28756;SDS011;44294;48.282;14.282;2023-05-10T09:22:10;17.37;;;11.10;;
28756;SDS011;44294;48.282;14.282;2023-05-10T09:25:10;15.03;;;10.20;;
28756;SDS011;44294;48.282;14.282;2023-05-10T09:27:57;13.23;;;10.33;;
28756;SDS011;44294;48.282;14.282;2023-05-10T09:30:45;13.23;;;9.50;;
28756;SDS011;44294;48.282;14.282;2023-05-10T09:33:43;15.47;;;9.50;;
28756;SDS011;44294;48.282;14.282;2023-05-10T09:36:22;12.30;;;8.90;;
28756;SDS011;44294;48.282;14.282;2023-05-10T09:39:10;11.83;;;8.73;;
28756;SDS011;44294;48.282;14.282;2023-05-10T09:41:57;11.27;;;8.50;;
28756;SDS011;44294;48.282;14.282;2023-05-10T09:44:45;11.40;;;8.23;;
28756;SDS011;44294;48.282;14.282;2023-05-10T09:47:34;12.33;;;9.23;;
28756;SDS011;44294;48.282;14.282;2023-05-10T09:50:22;11.33;;;8.43;;
28756;SDS011;44294;48.282;14.282;2023-05-10T09:53:10;10.43;;;8.20;;
28756;SDS011;44294;48.282;14.282;2023-05-10T09:55:59;12.73;;;8.77;;
28756;SDS011;44294;48.282;14.282;2023-05-10T09:58:46;11.63;;;7.73;;
28756;SDS011;44294;48.282;14.282;2023-05-10T10:01:35;11.73;;;8.93;;
28756;SDS011;44294;48.282;14.282;2023-05-10T10:04:22;14.23;;;9.00;;
28756;SDS011;44294;48.282;14.282;2023-05-10T10:07:09;15.63;;;9.90;;
28756;SDS011;44294;48.282;14.282;2023-05-10T10:09:57;12.67;;;9.07;;
28756;SDS011;44294;48.282;14.282;2023-05-10T10:12:45;14.80;;;9.80;;
28756;SDS011;44294;48.282;14.282;2023-05-10T10:15:33;18.43;;;12.43;;
28756;SDS011;44294;48.282;14.282;2023-05-10T10:18:21;16.10;;;9.30;;
28756;SDS011;44294;48.282;14.282;2023-05-10T10:21:10;12.70;;;8.87;;
28756;SDS011;44294;48.282;14.282;2023-05-10T10:23:57;13.00;;;9.27;;
28756;SDS011;44294;48.282;14.282;2023-05-10T10:26:44;14.30;;;9.50;;
28756;SDS011;44294;48.282;14.282;2023-05-10T10:29:58;13.30;;;10.40;;
28756;SDS011;44294;48.282;14.282;2023-05-10T10:35:47;13.80;;;9.60;;
28756;SDS011;44294;48.282;14.282;2023-05-10T10:38:35;18.10;;;10.77;;
28756;SDS011;44294;48.282;14.282;2023-05-10T10:50:08;16.63;;;10.50;;
28756;SDS011;44294;48.282;14.282;2023-05-10T10:52:56;20.60;;;14.80;;
28756;SDS011;44294;48.282;14.282;2023-05-10T10:55:46;16.63;;;12.30;;
28756;SDS011;44294;48.282;14.282;2023-05-10T10:58:34;15.13;;;11.17;;
28756;SDS011;44294;48.282;14.282;2023-05-10T11:01:22;14.77;;;10.30;;
28756;SDS011;44294;48.282;14.282;2023-05-10T11:07:15;14.80;;;10.37;;
28756;SDS011;44294;48.282;14.282;2023-05-10T11:09:47;16.50;;;11.10;;
28756;SDS011;44294;48.282;14.282;2023-05-10T11:12:34;17.27;;;11.53;;
28756;SDS011;44294;48.282;14.282;2023-05-10T11:15:28;17.73;;;12.07;;
28756;SDS011;44294;48.282;14.282;2023-05-10T11:18:18;15.63;;;11.17;;
28756;SDS011;44294;48.282;14.282;2023-05-10T11:21:08;15.53;;;10.90;;
28756;SDS011;44294;48.282;14.282;2023-05-10T11:23:58;14.37;;;10.20;;
28756;SDS011;44294;48.282;14.282;2023-05-10T11:26:45;13.83;;;9.90;;
28756;SDS011;44294;48.282;14.282;2023-05-10T11:29:33;11.37;;;9.07;;
28756;SDS011;44294;48.282;14.282;2023-05-10T11:32:20;11.20;;;8.37;;
28756;SDS011;44294;48.282;14.282;2023-05-10T11:35:11;10.47;;;8.70;;
28756;SDS011;44294;48.282;14.282;2023-05-10T11:37:57;10.53;;;8.37;;
28756;SDS011;44294;48.282;14.282;2023-05-10T11:40:44;10.73;;;8.80;;
28756;SDS011;44294;48.282;14.282;2023-05-10T11:43:32;13.30;;;10.27;;
28756;SDS011;44294;48.282;14.282;2023-05-10T11:46:20;13.33;;;9.00;;
28756;SDS011;44294;48.282;14.282;2023-05-10T11:49:07;14.33;;;9.40;;
28756;SDS011;44294;48.282;14.282;2023-05-10T11:52:07;13.53;;;10.43;;
28756;SDS011;44294;48.282;14.282;2023-05-10T11:54:54;14.50;;;10.40;;
28756;SDS011;44294;48.282;14.282;2023-05-10T11:57:42;13.30;;;10.37;;
28756;SDS011;44294;48.282;14.282;2023-05-10T12:00:31;24.60;;;16.40;;
28756;SDS011;44294;48.282;14.282;2023-05-10T12:03:18;15.67;;;11.90;;
28756;SDS011;44294;48.282;14.282;2023-05-10T12:06:06;15.10;;;11.73;;
28756;SDS011;44294;48.282;14.282;2023-05-10T12:08:54;21.40;;;16.10;;
28756;SDS011;44294;48.282;14.282;2023-05-10T12:11:41;19.70;;;15.10;;
28756;SDS011;44294;48.282;14.282;2023-05-10T12:14:28;20.77;;;15.73;;
28756;SDS011;44294;48.282;14.282;2023-05-10T12:17:17;15.53;;;11.50;;
28756;SDS011;44294;48.282;14.282;2023-05-10T12:20:14;13.97;;;10.20;;
28756;SDS011;44294;48.282;14.282;2023-05-10T12:23:04;13.60;;;10.50;;
28756;SDS011;44294;48.282;14.282;2023-05-10T12:25:52;9.80;;;8.80;;
28756;SDS011;44294;48.282;14.282;2023-05-10T12:28:40;16.00;;;12.77;;
28756;SDS011;44294;48.282;14.282;2023-05-10T12:31:27;11.53;;;9.63;;
28756;SDS011;44294;48.282;14.282;2023-05-10T12:34:22;13.23;;;9.60;;
28756;SDS011;44294;48.282;14.282;2023-05-10T12:37:03;9.90;;;8.13;;
28756;SDS011;44294;48.282;14.282;2023-05-10T12:39:51;10.80;;;8.90;;
28756;SDS011;44294;48.282;14.282;2023-05-10T12:42:39;11.03;;;8.80;;
28756;SDS011;44294;48.282;14.282;2023-05-10T12:45:26;11.13;;;8.83;;
28756;SDS011;44294;48.282;14.282;2023-05-10T12:48:14;11.63;;;9.37;;
28756;SDS011;44294;48.282;14.282;2023-05-10T12:51:02;14.13;;;9.00;;
28756;SDS011;44294;48.282;14.282;2023-05-10T12:53:50;14.90;;;9.60;;
28756;SDS011;44294;48.282;14.282;2023-05-10T12:56:37;12.37;;;9.00;;
28756;SDS011;44294;48.282;14.282;2023-05-10T12:59:24;14.30;;;9.50;;
28756;SDS011;44294;48.282;14.282;2023-05-10T13:02:11;10.83;;;8.97;;
28756;SDS011;44294;48.282;14.282;2023-05-10T13:05:00;11.40;;;9.40;;
28756;SDS011;44294;48.282;14.282;2023-05-10T13:07:48;13.67;;;10.53;;
28756;SDS011;44294;48.282;14.282;2023-05-10T13:10:35;14.67;;;10.43;;
28756;SDS011;44294;48.282;14.282;2023-05-10T13:13:22;11.23;;;9.63;;
28756;SDS011;44294;48.282;14.282;2023-05-10T13:16:09;12.97;;;9.80;;
28756;SDS011;44294;48.282;14.282;2023-05-10T13:18:57;12.93;;;9.57;;
28756;SDS011;44294;48.282;14.282;2023-05-10T13:21:44;13.20;;;9.30;;
28756;SDS011;44294;48.282;14.282;2023-05-10T13:24:32;11.33;;;9.30;;
28756;SDS011;44294;48.282;14.282;2023-05-10T13:27:19;13.17;;;9.50;;
28756;SDS011;44294;48.282;14.282;2023-05-10T13:30:07;12.60;;;9.80;;
28756;SDS011;44294;48.282;14.282;2023-05-10T13:32:54;12.53;;;10.20;;
28756;SDS011;44294;48.282;14.282;2023-05-10T13:35:41;12.40;;;9.20;;
28756;SDS011;44294;48.282;14.282;2023-05-10T13:38:29;11.93;;;9.83;;
28756;SDS011;44294;48.282;14.282;2023-05-10T13:41:16;12.73;;;9.83;;
28756;SDS011;44294;48.282;14.282;2023-05-10T13:44:03;12.53;;;9.70;;
28756;SDS011;44294;48.282;14.282;2023-05-10T13:46:51;14.20;;;9.73;;
28756;SDS011;44294;48.282;14.282;2023-05-10T13:49:38;11.83;;;9.30;;
28756;SDS011;44294;48.282;14.282;2023-05-10T13:52:26;10.43;;;9.07;;
28756;SDS011;44294;48.282;14.282;2023-05-10T13:55:13;12.43;;;10.00;;
28756;SDS011;44294;48.282;14.282;2023-05-10T13:58:00;11.70;;;9.40;;
28756;SDS011;44294;48.282;14.282;2023-05-10T14:00:48;13.17;;;9.30;;
28756;SDS011;44294;48.282;14.282;2023-05-10T14:03:35;9.70;;;8.50;;
28756;SDS011;44294;48.282;14.282;2023-05-10T14:06:22;12.13;;;9.27;;
28756;SDS011;44294;48.282;14.282;2023-05-10T14:09:09;11.53;;;8.90;;
28756;SDS011;44294;48.282;14.282;2023-05-10T14:11:57;9.70;;;8.47;;
28756;SDS011;44294;48.282;14.282;2023-05-10T14:14:45;9.87;;;8.17;;
28756;SDS011;44294;48.282;14.282;2023-05-10T14:17:32;10.27;;;8.43;;
28756;SDS011;44294;48.282;14.282;2023-05-10T14:20:19;8.57;;;7.57;;
28756;SDS011;44294;48.282;14.282;2023-05-10T14:23:06;9.40;;;7.60;;
28756;SDS011;44294;48.282;14.282;2023-05-10T14:25:54;7.47;;;6.67;;
28756;SDS011;44294;48.282;14.282;2023-05-10T14:28:41;8.13;;;6.90;;
28756;SDS011;44294;48.282;14.282;2023-05-10T14:31:28;7.40;;;6.60;;
28756;SDS011;44294;48.282;14.282;2023-05-10T14:34:16;8.40;;;6.53;;
28756;SDS011;44294;48.282;14.282;2023-05-10T14:37:03;7.67;;;5.97;;
28756;SDS011;44294;48.282;14.282;2023-05-10T14:39:51;8.00;;;6.87;;
28756;SDS011;44294;48.282;14.282;2023-05-10T14:42:38;10.33;;;6.50;;
28756;SDS011;44294;48.282;14.282;2023-05-10T14:45:25;8.53;;;6.83;;
28756;SDS011;44294;48.282;14.282;2023-05-10T14:48:13;7.63;;;6.50;;
28756;SDS011;44294;48.282;14.282;2023-05-10T14:51:02;9.23;;;6.83;;
28756;SDS011;44294;48.282;14.282;2023-05-10T14:53:49;7.37;;;6.67;;
28756;SDS011;44294;48.282;14.282;2023-05-10T14:56:37;7.20;;;6.50;;
28756;SDS011;44294;48.282;14.282;2023-05-10T14:59:24;16.57;;;12.47;;
28756;SDS011;44294;48.282;14.282;2023-05-10T15:02:11;15.00;;;11.37;;
28756;SDS011;44294;48.282;14.282;2023-05-10T15:04:59;12.43;;;9.60;;
28756;SDS011;44294;48.282;14.282;2023-05-10T15:07:47;21.17;;;16.13;;
28756;SDS011;44294;48.282;14.282;2023-05-10T15:10:34;18.90;;;14.70;;
28756;SDS011;44294;48.282;14.282;2023-05-10T15:13:23;25.63;;;19.47;;
28756;SDS011;44294;48.282;14.282;2023-05-10T15:16:10;20.37;;;14.73;;
28756;SDS011;44294;48.282;14.282;2023-05-10T15:18:57;20.63;;;15.23;;
28756;SDS011;44294;48.282;14.282;2023-05-10T15:21:44;28.43;;;19.90;;
28756;SDS011;44294;48.282;14.282;2023-05-10T15:24:33;24.07;;;16.90;;
28756;SDS011;44294;48.282;14.282;2023-05-10T15:27:20;19.57;;;15.63;;
28756;SDS011;44294;48.282;14.282;2023-05-10T15:30:08;25.63;;;17.67;;
28756;SDS011;44294;48.282;14.282;2023-05-10T15:32:55;17.77;;;13.50;;
28756;SDS011;44294;48.282;14.282;2023-05-10T15:35:43;16.93;;;12.30;;
28756;SDS011;44294;48.282;14.282;2023-05-10T15:38:30;14.13;;;11.47;;
28756;SDS011;44294;48.282;14.282;2023-05-10T15:41:17;16.33;;;12.17;;
28756;SDS011;44294;48.282;14.282;2023-05-10T15:44:04;13.90;;;11.13;;
28756;SDS011;44294;48.282;14.282;2023-05-10T15:46:52;14.13;;;10.97;;
28756;SDS011;44294;48.282;14.282;2023-05-10T15:49:39;16.40;;;11.73;;
28756;SDS011;44294;48.282;14.282;2023-05-10T15:52:27;17.37;;;11.53;;
28756;SDS011;44294;48.282;14.282;2023-05-10T15:55:14;15.80;;;11.10;;
28756;SDS011;44294;48.282;14.282;2023-05-10T15:58:01;17.03;;;9.87;;
28756;SDS011;44294;48.282;14.282;2023-05-10T16:00:49;12.60;;;9.87;;
28756;SDS011;44294;48.282;14.282;2023-05-10T16:03:36;17.70;;;11.83;;
28756;SDS011;44294;48.282;14.282;2023-05-10T16:06:24;18.87;;;12.97;;
28756;SDS011;44294;48.282;14.282;2023-05-10T16:09:11;16.37;;;10.60;;
28756;SDS011;44294;48.282;14.282;2023-05-10T16:11:58;14.60;;;10.50;;
28756;SDS011;44294;48.282;14.282;2023-05-10T16:14:46;12.77;;;9.60;;
28756;SDS011;44294;48.282;14.282;2023-05-10T16:17:33;13.87;;;9.50;;
28756;SDS011;44294;48.282;14.282;2023-05-10T16:20:21;15.37;;;10.10;;
28756;SDS011;44294;48.282;14.282;2023-05-10T16:23:08;14.43;;;10.30;;
28756;SDS011;44294;48.282;14.282;2023-05-10T16:25:56;13.80;;;9.37;;
28756;SDS011;44294;48.282;14.282;2023-05-10T16:28:43;14.60;;;9.90;;
28756;SDS011;44294;48.282;14.282;2023-05-10T16:31:30;10.73;;;8.47;;
28756;SDS011;44294;48.282;14.282;2023-05-10T16:34:18;15.27;;;9.07;;
28756;SDS011;44294;48.282;14.282;2023-05-10T16:37:07;12.57;;;8.67;;
28756;SDS011;44294;48.282;14.282;2023-05-10T16:39:55;12.00;;;8.67;;
28756;SDS011;44294;48.282;14.282;2023-05-10T16:42:42;11.00;;;8.83;;
28756;SDS011;44294;48.282;14.282;2023-05-10T16:45:30;10.60;;;8.47;;
28756;SDS011;44294;48.282;14.282;2023-05-10T16:48:17;10.07;;;8.20;;
28756;SDS011;44294;48.282;14.282;2023-05-10T16:51:05;10.87;;;8.13;;